< < Back
Terminal Aerodrome Forecast


Current Version              Previous Versions:   1  2  3  4  5  6  7  8  9  

Terminal Aerodrome Forecast

197
FTUS42 KILM 312320
TAFILM
TAF
KILM 312320Z 0100/0124 22010KT P6SM SCT250
     FM010600 34007KT P6SM SCT050 SCT160 BKN250
     FM011400 02012KT P6SM SCT250=

Latest METAR

857
SAUS70 KWBC 010100 RRP
MTRILM
METAR KILM 010053Z 21013G18KT 10SM CLR 17/09 A2985 RMK AO2 SLP108
T01670094


USA.gov is the U.S. government's official web portal to all federal, state and local government web resources and services.